Portada
METAR-TAF:

METAR-TAF

Aeroports :

Hyderabad, Índia

latitud: 17-14-00N, longitud: 078-26-00E, altitud: 617 m

Observació

L'informe es va fer fa 41 minuts, a les 13:30 UTC
Vent 7 kt del Est/Sud-Est
Temperatura 24°C
Humitat 69%
Pressió 1017 hPa
Visibilitat: 6000 m
Núvols disperses a una alçada de 1500 ft

METAR: VOHS 201330Z 11007KT 6000 SCT015 24/18 Q1017 NOSIG

Hora: 19:41 (14:11 UTC)

Pronòstic

L'informe es va fer fa 3 hores i 11 minuts, a les 11:00 UTC
Pronòstic vàlid del 20 a les 12 UTC al 20 a les 21 UTC
Vent 6 kt del Est/Sud-Est
Visibilitat: 6000 m
Núvols disperses a una alçada de 1500 ft
Temporalment
l' 20 a les 16 UTC al 20 a les 18 UTC
Vent 5 kt del Sud/Sud-Est
Visibilitat: 5000 m
Escasses núvols a una alçada de 1500 ft
calitja, boirina

TAF: VOHS 201100Z 2012/2021 12006KT 6000 SCT015 TEMPO 2016/2018 15005KT 5000 HZ BR FEW015

Observacions i pronòstics meteorològics de més de 4000 aeroports (METAR i TAF).

Les estacions disponibles són els punts grocs i vermells al mapa.

Posi el ratolí al punt desitjat per veure el nom de l'estació.

Feu clic per veure les observacions i els pronòstics meteorològics.

Per canviar el mapa: feu clic els botons verds amb una creu de color negre per apropar; al botó verd amb un guió per allunyar la imatge; o en les fletxes verdes per a mapes adjacents.


METAR-TAF: